createdAt,value
2017-09-20T00:00:00.604Z,10.62
2017-09-20T00:00:04.668Z,10.63
2017-09-20T00:00:08.599Z,10.66
2017-09-20T00:00:12.787Z,10.69
2017-09-20T00:00:16.851Z,10.63
2017-09-20T00:00:21.158Z,10.62
2017-09-20T00:00:25.093Z,10.66
2017-09-20T00:00:29.409Z,10.62
2017-09-20T00:00:33.473Z,10.62
2017-09-20T00:00:37.411Z,10.58
2017-09-20T00:00:41.593Z,10.66
2017-09-20T00:00:45.658Z,10.63
2017-09-20T00:00:49.341Z,10.62
2017-09-20T00:00:53.276Z,10.63
2017-09-20T00:00:57.245Z,10.58
2017-09-20T00:01:01.554Z,10.63
2017-09-20T00:01:05.611Z,10.68
2017-09-20T00:01:09.681Z,10.63
2017-09-20T00:01:13.866Z,10.6
2017-09-20T00:01:17.933Z,10.62
2017-09-20T00:01:21.745Z,10.58
2017-09-20T00:01:25.804Z,10.6
2017-09-20T00:01:29.872Z,10.66
2017-09-20T00:01:33.797Z,10.68
2017-09-20T00:01:37.978Z,10.6
2017-09-20T00:01:42.042Z,10.66
2017-09-20T00:01:46.107Z,10.55
2017-09-20T00:01:50.297Z,10.63
2017-09-20T00:01:54.228Z,10.68
2017-09-20T00:01:58.162Z,10.6
2017-09-20T00:02:02.692Z,10.68
2017-09-20T00:02:06.627Z,10.65
2017-09-20T00:02:10.933Z,10.65
2017-09-20T00:02:14.740Z,10.63
2017-09-20T00:02:19.050Z,10.65
2017-09-20T00:02:23.105Z,10.6
2017-09-20T00:02:27.286Z,10.6
2017-09-20T00:02:31.224Z,10.6
2017-09-20T00:02:35.287Z,10.65
2017-09-20T00:02:39.345Z,10.58
2017-09-20T00:02:43.404Z,10.62
2017-09-20T00:02:47.724Z,10.6
2017-09-20T00:02:51.816Z,10.6
2017-09-20T00:02:55.751Z,10.63
2017-09-20T00:02:59.566Z,10.6
2017-09-20T00:03:03.622Z,10.6
2017-09-20T00:03:07.679Z,10.62
2017-09-20T00:03:11.869Z,10.63
2017-09-20T00:03:15.676Z,10.62
2017-09-20T00:03:20.112Z,10.69
2017-09-20T00:03:24.294Z,10.66
2017-09-20T00:03:28.604Z,10.69
2017-09-20T00:03:32.790Z,10.65
2017-09-20T00:03:36.976Z,10.6
2017-09-20T00:03:41.032Z,10.63
2017-09-20T00:03:45.088Z,10.6
2017-09-20T00:03:49.031Z,10.68
2017-09-20T00:03:53.087Z,10.58
2017-09-20T00:03:57.278Z,10.62
2017-09-20T00:04:01.213Z,10.65
2017-09-20T00:04:05.021Z,10.63
2017-09-20T00:04:09.344Z,10.63
2017-09-20T00:04:13.403Z,10.6
2017-09-20T00:04:17.489Z,10.65
2017-09-20T00:04:21.444Z,10.69
2017-09-20T00:04:25.376Z,10.62
2017-09-20T00:04:29.563Z,10.62
2017-09-20T00:04:33.631Z,10.6
2017-09-20T00:04:37.940Z,10.62
2017-09-20T00:04:41.997Z,10.62
2017-09-20T00:04:45.945Z,10.6
2017-09-20T00:04:50.377Z,10.62
2017-09-20T00:04:54.451Z,10.65
2017-09-20T00:04:58.514Z,10.63
2017-09-20T00:05:02.624Z,10.6
2017-09-20T00:05:06.681Z,10.6
2017-09-20T00:05:10.610Z,10.66
2017-09-20T00:05:14.797Z,10.6
2017-09-20T00:05:18.863Z,10.6
2017-09-20T00:05:22.921Z,10.66
2017-09-20T00:05:27.109Z,10.6
2017-09-20T00:05:31.045Z,10.55
2017-09-20T00:05:34.999Z,10.58
2017-09-20T00:05:38.913Z,10.63
2017-09-20T00:05:42.969Z,10.55
2017-09-20T00:05:46.908Z,10.6
2017-09-20T00:05:50.838Z,10.57
2017-09-20T00:05:54.806Z,10.7
2017-09-20T00:05:58.742Z,10.65
2017-09-20T00:06:02.804Z,10.62
2017-09-20T00:06:06.869Z,10.6
2017-09-20T00:06:11.055Z,10.58
2017-09-20T00:06:15.241Z,10.6
2017-09-20T00:06:19.427Z,10.66
2017-09-20T00:06:23.488Z,10.6
2017-09-20T00:06:27.672Z,10.55
2017-09-20T00:06:31.606Z,10.58
2017-09-20T00:06:35.542Z,10.58
2017-09-20T00:06:39.604Z,10.55
2017-09-20T00:06:43.532Z,10.55
2017-09-20T00:06:47.591Z,10.6
2017-09-20T00:06:51.405Z,10.55
2017-09-20T00:06:55.343Z,10.68
2017-09-20T00:06:59.409Z,10.57
2017-09-20T00:07:03.370Z,10.6
2017-09-20T00:07:07.435Z,10.6
2017-09-20T00:07:11.365Z,10.55
2017-09-20T00:07:15.799Z,10.62
2017-09-20T00:07:19.985Z,10.6
2017-09-20T00:07:24.171Z,10.65
2017-09-20T00:07:28.363Z,10.6
2017-09-20T00:07:32.672Z,10.6
2017-09-20T00:07:36.861Z,10.63
2017-09-20T00:07:41.051Z,10.62
2017-09-20T00:07:45.359Z,10.55
2017-09-20T00:07:49.419Z,10.58
2017-09-20T00:07:53.533Z,10.6
2017-09-20T00:07:57.716Z,10.58
2017-09-20T00:08:01.749Z,10.58
2017-09-20T00:08:05.809Z,10.6
2017-09-20T00:08:09.623Z,10.62
2017-09-20T00:08:13.934Z,10.6
2017-09-20T00:08:17.992Z,10.57
2017-09-20T00:08:21.802Z,10.65
2017-09-20T00:08:25.740Z,10.68
2017-09-20T00:08:29.795Z,10.55
2017-09-20T00:08:33.975Z,10.55
2017-09-20T00:08:37.906Z,10.55
2017-09-20T00:08:41.963Z,10.55
2017-09-20T00:08:46.150Z,10.58
2017-09-20T00:08:50.207Z,10.6
2017-09-20T00:08:54.390Z,10.62
2017-09-20T00:08:58.073Z,10.55
2017-09-20T00:09:01.886Z,10.55
2017-09-20T00:09:05.948Z,10.6
2017-09-20T00:09:10.007Z,10.6
2017-09-20T00:09:14.196Z,10.6
2017-09-20T00:09:18.003Z,10.58
2017-09-20T00:09:22.187Z,10.6
2017-09-20T00:09:26.119Z,10.52
2017-09-20T00:09:30.186Z,10.57
2017-09-20T00:09:34.403Z,10.65
2017-09-20T00:09:38.470Z,10.66
2017-09-20T00:09:42.655Z,10.62
2017-09-20T00:09:46.967Z,10.66
2017-09-20T00:09:51.032Z,10.58
2017-09-20T00:09:54.843Z,10.6
2017-09-20T00:09:58.652Z,10.62
2017-09-20T00:10:02.708Z,10.6
2017-09-20T00:10:06.672Z,10.65
2017-09-20T00:10:10.486Z,10.6
2017-09-20T00:10:14.678Z,10.65
2017-09-20T00:10:18.987Z,10.62
2017-09-20T00:10:22.915Z,10.62
2017-09-20T00:10:26.723Z,10.55
2017-09-20T00:10:30.657Z,10.55
2017-09-20T00:10:34.587Z,10.6
2017-09-20T00:10:38.774Z,10.58
2017-09-20T00:10:42.708Z,10.55
2017-09-20T00:10:46.888Z,10.63
2017-09-20T00:10:50.819Z,10.6
2017-09-20T00:10:54.631Z,10.6
2017-09-20T00:10:58.563Z,10.65
2017-09-20T00:11:02.850Z,10.62
2017-09-20T00:11:06.785Z,10.62
2017-09-20T00:11:11.103Z,10.6
2017-09-20T00:11:15.192Z,10.62
2017-09-20T00:11:18.998Z,10.62
2017-09-20T00:11:22.933Z,10.62
2017-09-20T00:11:26.861Z,10.62
2017-09-20T00:11:30.919Z,10.57
2017-09-20T00:11:35.106Z,10.58
2017-09-20T00:11:39.038Z,10.6
2017-09-20T00:11:43.348Z,10.55
2017-09-20T00:11:47.280Z,10.49
2017-09-20T00:11:51.205Z,10.49
2017-09-20T00:11:55.140Z,10.57
2017-09-20T00:11:58.948Z,10.58
2017-09-20T00:12:02.753Z,10.62
2017-09-20T00:12:06.566Z,10.58
2017-09-20T00:12:10.628Z,10.57
2017-09-20T00:12:14.849Z,10.57
2017-09-20T00:12:19.034Z,10.58
2017-09-20T00:12:23.213Z,10.54
2017-09-20T00:12:27.274Z,10.52
2017-09-20T00:12:31.204Z,10.57
2017-09-20T00:12:35.012Z,10.47
2017-09-20T00:12:39.198Z,10.47
2017-09-20T00:12:43.524Z,10.51
2017-09-20T00:12:47.460Z,10.52
2017-09-20T00:12:51.511Z,10.62
2017-09-20T00:12:55.451Z,10.54
2017-09-20T00:12:59.509Z,10.55
2017-09-20T00:13:03.195Z,10.54
2017-09-20T00:13:07.003Z,10.62
2017-09-20T00:13:11.066Z,10.55
2017-09-20T00:13:15.380Z,10.57
2017-09-20T00:13:19.679Z,10.47
2017-09-20T00:13:23.735Z,10.57
2017-09-20T00:13:27.673Z,10.55
2017-09-20T00:13:31.607Z,10.57
2017-09-20T00:13:35.786Z,10.58
2017-09-20T00:13:39.466Z,10.62
2017-09-20T00:13:43.779Z,10.6
2017-09-20T00:13:47.855Z,10.57
2017-09-20T00:13:52.037Z,10.51
2017-09-20T00:13:55.974Z,10.46
2017-09-20T00:14:00.042Z,10.49
2017-09-20T00:14:04.460Z,10.54
2017-09-20T00:14:08.148Z,10.57
2017-09-20T00:14:12.209Z,10.47
2017-09-20T00:14:16.396Z,10.54
2017-09-20T00:14:20.217Z,10.54
2017-09-20T00:14:24.025Z,10.54
2017-09-20T00:14:28.082Z,10.58
2017-09-20T00:14:32.141Z,10.58
2017-09-20T00:14:36.075Z,10.6
2017-09-20T00:14:40.133Z,10.58
2017-09-20T00:14:43.939Z,10.54
2017-09-20T00:14:47.995Z,10.47
2017-09-20T00:14:52.177Z,10.54
2017-09-20T00:14:56.494Z,10.54
2017-09-20T00:15:00.429Z,10.58
2017-09-20T00:15:04.621Z,10.54
2017-09-20T00:15:08.551Z,10.54
2017-09-20T00:15:12.363Z,10.55
2017-09-20T00:15:16.666Z,10.51
2017-09-20T00:15:20.899Z,10.47
2017-09-20T00:15:24.955Z,10.51
2017-09-20T00:15:29.140Z,10.55
2017-09-20T00:15:33.461Z,10.52
2017-09-20T00:15:37.515Z,10.51
2017-09-20T00:15:41.576Z,10.54
2017-09-20T00:15:45.767Z,10.55
2017-09-20T00:15:49.830Z,10.51
2017-09-20T00:15:53.766Z,10.57
2017-09-20T00:15:57.952Z,10.51
2017-09-20T00:16:01.970Z,10.51
2017-09-20T00:16:05.901Z,10.47
2017-09-20T00:16:09.957Z,10.54
2017-09-20T00:16:14.137Z,10.57
2017-09-20T00:16:18.320Z,10.49
2017-09-20T00:16:22.259Z,10.52
2017-09-20T00:16:26.321Z,10.54
2017-09-20T00:16:30.003Z,10.47
2017-09-20T00:16:34.194Z,10.46
2017-09-20T00:16:38.382Z,10.52
2017-09-20T00:16:42.314Z,10.57
2017-09-20T00:16:46.245Z,10.51
2017-09-20T00:16:50.055Z,10.52
2017-09-20T00:16:54.127Z,10.46
2017-09-20T00:16:58.312Z,10.46
2017-09-20T00:17:02.249Z,10.54
2017-09-20T00:17:06.179Z,10.6
2017-09-20T00:17:09.991Z,10.54
2017-09-20T00:17:13.923Z,10.54
2017-09-20T00:17:17.989Z,10.51
2017-09-20T00:17:22.048Z,10.57
2017-09-20T00:17:26.250Z,10.49
2017-09-20T00:17:30.436Z,10.57
2017-09-20T00:17:34.744Z,10.57
2017-09-20T00:17:38.691Z,10.51
2017-09-20T00:17:42.754Z,10.51
2017-09-20T00:17:46.559Z,10.51
2017-09-20T00:17:50.489Z,10.58
2017-09-20T00:17:54.672Z,10.49
2017-09-20T00:17:58.733Z,10.52
2017-09-20T00:18:02.763Z,10.55
2017-09-20T00:18:06.702Z,10.51
2017-09-20T00:18:10.630Z,10.57
2017-09-20T00:18:15.066Z,10.51
2017-09-20T00:18:19.128Z,10.57
2017-09-20T00:18:23.060Z,10.57
2017-09-20T00:18:27.251Z,10.52
2017-09-20T00:18:31.594Z,10.52
2017-09-20T00:18:35.658Z,10.54
2017-09-20T00:18:39.589Z,10.57
2017-09-20T00:18:43.774Z,10.51
2017-09-20T00:18:47.579Z,10.57
2017-09-20T00:18:51.637Z,10.49
2017-09-20T00:18:55.442Z,10.54
2017-09-20T00:18:59.509Z,10.51
2017-09-20T00:19:03.573Z,10.57
2017-09-20T00:19:07.387Z,10.54
2017-09-20T00:19:11.570Z,10.57
2017-09-20T00:19:15.627Z,10.54
2017-09-20T00:19:19.692Z,10.47
2017-09-20T00:19:23.886Z,10.54
2017-09-20T00:19:27.949Z,10.49
2017-09-20T00:19:32.134Z,10.52
2017-09-20T00:19:36.195Z,10.51
2017-09-20T00:19:40.253Z,10.51
2017-09-20T00:19:44.190Z,10.57
2017-09-20T00:19:48.373Z,10.55
2017-09-20T00:19:52.562Z,10.58
2017-09-20T00:19:56.748Z,10.57
2017-09-20T00:20:00.685Z,10.51
2017-09-20T00:20:04.624Z,10.54
2017-09-20T00:20:08.555Z,10.51
2017-09-20T00:20:12.372Z,10.54
2017-09-20T00:20:16.307Z,10.47
2017-09-20T00:20:20.237Z,10.58
2017-09-20T00:20:24.425Z,10.54
2017-09-20T00:20:28.483Z,10.58
2017-09-20T00:20:32.422Z,10.54
2017-09-20T00:20:36.488Z,10.54
2017-09-20T00:20:40.421Z,10.54
2017-09-20T00:20:44.350Z,10.54
2017-09-20T00:20:48.659Z,10.54
2017-09-20T00:20:52.593Z,10.54
2017-09-20T00:20:56.666Z,10.51
2017-09-20T00:21:00.724Z,10.49
2017-09-20T00:21:04.659Z,10.52
2017-09-20T00:21:08.844Z,10.54
2017-09-20T00:21:12.531Z,10.52
2017-09-20T00:21:16.583Z,10.46
2017-09-20T00:21:20.517Z,10.54
2017-09-20T00:21:24.701Z,10.54
2017-09-20T00:21:28.642Z,10.57
2017-09-20T00:21:32.581Z,10.51
2017-09-20T00:21:36.640Z,10.54
2017-09-20T00:21:40.825Z,10.54
2017-09-20T00:21:44.889Z,10.51
2017-09-20T00:21:48.695Z,10.51
2017-09-20T00:21:52.519Z,10.49
2017-09-20T00:21:56.455Z,10.51
2017-09-20T00:22:00.763Z,10.57
2017-09-20T00:22:04.698Z,10.51
2017-09-20T00:22:08.757Z,10.54
2017-09-20T00:22:12.690Z,10.51
2017-09-20T00:22:16.874Z,10.49
2017-09-20T00:22:20.936Z,10.54
2017-09-20T00:22:25.135Z,10.51
2017-09-20T00:22:29.071Z,10.57
2017-09-20T00:22:32.999Z,10.52
2017-09-20T00:22:36.935Z,10.49
2017-09-20T00:22:40.871Z,10.51
2017-09-20T00:22:44.933Z,10.46
2017-09-20T00:22:48.868Z,10.55
2017-09-20T00:22:52.924Z,10.55
2017-09-20T00:22:56.735Z,10.52
2017-09-20T00:23:00.923Z,10.49
2017-09-20T00:23:04.976Z,10.51
2017-09-20T00:23:08.908Z,10.49
2017-09-20T00:23:12.595Z,10.52
2017-09-20T00:23:16.783Z,10.47
2017-09-20T00:23:21.087Z,10.54
2017-09-20T00:23:25.268Z,10.46
2017-09-20T00:23:29.203Z,10.49
2017-09-20T00:23:33.431Z,10.47
2017-09-20T00:23:37.483Z,10.47
2017-09-20T00:23:41.665Z,10.49
2017-09-20T00:23:45.757Z,10.51
2017-09-20T00:23:49.942Z,10.57
2017-09-20T00:23:53.996Z,10.52
2017-09-20T00:23:58.060Z,10.54
2017-09-20T00:24:02.582Z,10.54
2017-09-20T00:24:06.640Z,10.51
2017-09-20T00:24:10.568Z,10.51
2017-09-20T00:24:14.508Z,10.51
2017-09-20T00:24:18.571Z,10.51
2017-09-20T00:24:22.377Z,10.47
2017-09-20T00:24:26.558Z,10.54
2017-09-20T00:24:30.628Z,10.52
2017-09-20T00:24:34.691Z,10.55
2017-09-20T00:24:38.753Z,10.58
2017-09-20T00:24:42.689Z,10.51
2017-09-20T00:24:46.885Z,10.57
2017-09-20T00:24:50.822Z,10.47
2017-09-20T00:24:54.879Z,10.54
2017-09-20T00:24:58.811Z,10.52
2017-09-20T00:25:02.753Z,10.57
2017-09-20T00:25:06.683Z,10.49
2017-09-20T00:25:10.865Z,10.57
2017-09-20T00:25:14.674Z,10.49
2017-09-20T00:25:18.606Z,10.54
2017-09-20T00:25:22.793Z,10.54
2017-09-20T00:25:26.608Z,10.52
2017-09-20T00:25:30.538Z,10.51
2017-09-20T00:25:34.602Z,10.47
2017-09-20T00:25:38.918Z,10.52
2017-09-20T00:25:42.976Z,10.54
2017-09-20T00:25:47.152Z,10.51
2017-09-20T00:25:51.343Z,10.52
2017-09-20T00:25:55.140Z,10.55
2017-09-20T00:25:59.080Z,10.57
2017-09-20T00:26:03.140Z,10.49
2017-09-20T00:26:07.198Z,10.54
2017-09-20T00:26:11.385Z,10.49
2017-09-20T00:26:15.194Z,10.51
2017-09-20T00:26:19.251Z,10.52
2017-09-20T00:26:23.207Z,10.51
2017-09-20T00:26:27.402Z,10.52
2017-09-20T00:26:31.470Z,10.49
2017-09-20T00:26:35.531Z,10.49
2017-09-20T00:26:39.717Z,10.51
2017-09-20T00:26:43.901Z,10.54
2017-09-20T00:26:48.083Z,10.55
2017-09-20T00:26:52.142Z,10.51
2017-09-20T00:26:56.205Z,10.6
2017-09-20T00:27:00.394Z,10.54
2017-09-20T00:27:04.338Z,10.51
2017-09-20T00:27:08.521Z,10.49
2017-09-20T00:27:12.571Z,10.49
2017-09-20T00:27:16.257Z,10.51
2017-09-20T00:27:20.441Z,10.49
2017-09-20T00:27:24.631Z,10.51
2017-09-20T00:27:28.946Z,10.54
2017-09-20T00:27:33.000Z,10.54
2017-09-20T00:27:36.939Z,10.55
2017-09-20T00:27:40.994Z,10.51
2017-09-20T00:27:45.177Z,10.62
2017-09-20T00:27:49.238Z,10.55
2017-09-20T00:27:53.294Z,10.55
2017-09-20T00:27:57.613Z,10.51
2017-09-20T00:28:01.671Z,10.52
2017-09-20T00:28:05.736Z,10.54
2017-09-20T00:28:09.671Z,10.51
2017-09-20T00:28:13.733Z,10.54
2017-09-20T00:28:17.794Z,10.57
2017-09-20T00:28:21.603Z,10.57
2017-09-20T00:28:25.790Z,10.52
2017-09-20T00:28:29.856Z,10.54
2017-09-20T00:28:33.913Z,10.51
2017-09-20T00:28:38.097Z,10.52
2017-09-20T00:28:42.027Z,10.51
2017-09-20T00:28:45.967Z,10.51
2017-09-20T00:28:50.279Z,10.54
2017-09-20T00:28:54.088Z,10.55
2017-09-20T00:28:58.036Z,10.55
2017-09-20T00:29:01.986Z,10.51
2017-09-20T00:29:06.043Z,10.55
2017-09-20T00:29:09.986Z,10.57
2017-09-20T00:29:13.934Z,10.49
2017-09-20T00:29:18.116Z,10.55
2017-09-20T00:29:22.172Z,10.51
2017-09-20T00:29:26.354Z,10.55
2017-09-20T00:29:30.421Z,10.51
2017-09-20T00:29:34.603Z,10.44
2017-09-20T00:29:38.662Z,10.54
2017-09-20T00:29:42.844Z,10.46
2017-09-20T00:29:46.652Z,10.54
2017-09-20T00:29:50.848Z,10.49
2017-09-20T00:29:54.657Z,10.51
2017-09-20T00:29:58.718Z,10.57
2017-09-20T00:30:02.959Z,10.54
2017-09-20T00:30:06.895Z,10.57
2017-09-20T00:30:10.822Z,10.51
2017-09-20T00:30:14.756Z,10.49
2017-09-20T00:30:18.945Z,10.51
2017-09-20T00:30:22.753Z,10.51
2017-09-20T00:30:27.059Z,10.51
2017-09-20T00:30:31.370Z,10.55
2017-09-20T00:30:35.563Z,10.51
2017-09-20T00:30:39.510Z,10.51
2017-09-20T00:30:43.690Z,10.54
2017-09-20T00:30:47.498Z,10.51
2017-09-20T00:30:51.564Z,10.49
2017-09-20T00:30:55.623Z,10.51
2017-09-20T00:30:59.682Z,10.52
2017-09-20T00:31:03.620Z,10.51
2017-09-20T00:31:07.685Z,10.52
2017-09-20T00:31:11.619Z,10.54
2017-09-20T00:31:15.557Z,10.51
2017-09-20T00:31:19.491Z,10.57
2017-09-20T00:31:23.424Z,10.57
2017-09-20T00:31:27.483Z,10.49
2017-09-20T00:31:31.544Z,10.51
2017-09-20T00:31:35.602Z,10.52
2017-09-20T00:31:39.788Z,10.54
2017-09-20T00:31:43.854Z,10.49
2017-09-20T00:31:47.787Z,10.55
2017-09-20T00:31:51.469Z,10.49
2017-09-20T00:31:55.530Z,10.54
2017-09-20T00:31:59.715Z,10.52
2017-09-20T00:32:03.642Z,10.46
2017-09-20T00:32:07.580Z,10.52
2017-09-20T00:32:11.643Z,10.52
2017-09-20T00:32:15.695Z,10.57
2017-09-20T00:32:19.755Z,10.52
2017-09-20T00:32:23.817Z,10.51
2017-09-20T00:32:27.876Z,10.52
2017-09-20T00:32:31.816Z,10.51
2017-09-20T00:32:35.629Z,10.54
2017-09-20T00:32:39.692Z,10.49
2017-09-20T00:32:43.504Z,10.46
2017-09-20T00:32:47.698Z,10.51
2017-09-20T00:32:51.883Z,10.46
2017-09-20T00:32:56.063Z,10.49
2017-09-20T00:33:00.136Z,10.55
2017-09-20T00:33:04.367Z,10.46
2017-09-20T00:33:08.177Z,10.57
2017-09-20T00:33:12.366Z,10.58
2017-09-20T00:33:16.677Z,10.54
2017-09-20T00:33:20.612Z,10.49
2017-09-20T00:33:24.543Z,10.54
2017-09-20T00:33:28.478Z,10.46
2017-09-20T00:33:32.676Z,10.51
2017-09-20T00:33:36.609Z,10.54
2017-09-20T00:33:40.913Z,10.51
2017-09-20T00:33:44.977Z,10.57
2017-09-20T00:33:49.162Z,10.51
2017-09-20T00:33:53.229Z,10.54
2017-09-20T00:33:57.415Z,10.52
2017-09-20T00:34:01.475Z,10.54
2017-09-20T00:34:05.536Z,10.57
2017-09-20T00:34:09.601Z,10.51
2017-09-20T00:34:13.290Z,10.51
2017-09-20T00:34:17.350Z,10.52
2017-09-20T00:34:21.289Z,10.54
2017-09-20T00:34:25.226Z,10.55
2017-09-20T00:34:29.542Z,10.54
2017-09-20T00:34:33.476Z,10.54
2017-09-20T00:34:37.534Z,10.49
2017-09-20T00:34:41.843Z,10.51
2017-09-20T00:34:45.783Z,10.57
2017-09-20T00:34:49.840Z,10.54
2017-09-20T00:34:54.143Z,10.49
2017-09-20T00:34:58.076Z,10.54
2017-09-20T00:35:02.334Z,10.57
2017-09-20T00:35:06.399Z,10.52
2017-09-20T00:35:10.585Z,10.57
2017-09-20T00:35:14.638Z,10.49
2017-09-20T00:35:18.576Z,10.49
2017-09-20T00:35:22.382Z,10.51
2017-09-20T00:35:26.184Z,10.47
2017-09-20T00:35:29.996Z,10.54
2017-09-20T00:35:33.935Z,10.49
2017-09-20T00:35:37.868Z,10.58
2017-09-20T00:35:42.054Z,10.51
2017-09-20T00:35:45.985Z,10.58
2017-09-20T00:35:49.921Z,10.51
2017-09-20T00:35:54.106Z,10.54
2017-09-20T00:35:58.409Z,10.57
2017-09-20T00:36:02.563Z,10.54
2017-09-20T00:36:06.501Z,10.51
2017-09-20T00:36:10.310Z,10.58
2017-09-20T00:36:14.239Z,10.57
2017-09-20T00:36:18.169Z,10.51
2017-09-20T00:36:22.223Z,10.54
2017-09-20T00:36:26.289Z,10.55
2017-09-20T00:36:30.099Z,10.57
2017-09-20T00:36:34.035Z,10.54
2017-09-20T00:36:38.355Z,10.51
2017-09-20T00:36:42.413Z,10.54
2017-09-20T00:36:46.593Z,10.55
2017-09-20T00:36:50.653Z,10.63
2017-09-20T00:36:54.457Z,10.58
2017-09-20T00:36:58.425Z,10.51
2017-09-20T00:37:02.611Z,10.6
2017-09-20T00:37:06.667Z,10.51
2017-09-20T00:37:10.729Z,10.51
2017-09-20T00:37:14.666Z,10.54
2017-09-20T00:37:18.853Z,10.54
2017-09-20T00:37:22.663Z,10.51
2017-09-20T00:37:26.602Z,10.52
2017-09-20T00:37:30.812Z,10.57
2017-09-20T00:37:34.749Z,10.54
2017-09-20T00:37:38.683Z,10.58
2017-09-20T00:37:42.490Z,10.58
2017-09-20T00:37:46.680Z,10.54
2017-09-20T00:37:50.744Z,10.54
2017-09-20T00:37:54.678Z,10.54
2017-09-20T00:37:58.889Z,10.49
2017-09-20T00:38:03.132Z,10.49
2017-09-20T00:38:06.939Z,10.51
2017-09-20T00:38:11.248Z,10.54
2017-09-20T00:38:15.310Z,10.58
2017-09-20T00:38:19.366Z,10.58
2017-09-20T00:38:23.546Z,10.54
2017-09-20T00:38:27.732Z,10.52
2017-09-20T00:38:31.534Z,10.58
2017-09-20T00:38:35.717Z,10.55
2017-09-20T00:38:39.900Z,10.57
2017-09-20T00:38:43.965Z,10.54
2017-09-20T00:38:48.034Z,10.51
2017-09-20T00:38:52.228Z,10.54
2017-09-20T00:38:55.911Z,10.52
2017-09-20T00:38:59.713Z,10.6
2017-09-20T00:39:03.651Z,10.54
2017-09-20T00:39:07.714Z,10.54
2017-09-20T00:39:12.030Z,10.54
2017-09-20T00:39:16.219Z,10.54
2017-09-20T00:39:20.284Z,10.54
2017-09-20T00:39:24.095Z,10.57
2017-09-20T00:39:28.030Z,10.52
2017-09-20T00:39:31.966Z,10.58
2017-09-20T00:39:36.028Z,10.46
2017-09-20T00:39:40.089Z,10.6
2017-09-20T00:39:43.897Z,10.55
2017-09-20T00:39:47.951Z,10.51
2017-09-20T00:39:51.760Z,10.49
2017-09-20T00:39:55.697Z,10.58
2017-09-20T00:39:59.754Z,10.54
2017-09-20T00:40:03.814Z,10.57
2017-09-20T00:40:07.750Z,10.47
2017-09-20T00:40:11.934Z,10.49
2017-09-20T00:40:15.990Z,10.47
2017-09-20T00:40:20.046Z,10.6
2017-09-20T00:40:24.137Z,10.57
2017-09-20T00:40:28.195Z,10.52
2017-09-20T00:40:32.258Z,10.55
2017-09-20T00:40:36.313Z,10.57
2017-09-20T00:40:40.514Z,10.54
2017-09-20T00:40:44.568Z,10.51
2017-09-20T00:40:48.246Z,10.55
2017-09-20T00:40:52.555Z,10.51
2017-09-20T00:40:56.748Z,10.46
2017-09-20T00:41:00.560Z,10.49
2017-09-20T00:41:04.620Z,10.51
2017-09-20T00:41:08.549Z,10.57
2017-09-20T00:41:12.490Z,10.54
2017-09-20T00:41:16.712Z,10.51
2017-09-20T00:41:20.766Z,10.54
2017-09-20T00:41:24.824Z,10.55
2017-09-20T00:41:28.922Z,10.57
2017-09-20T00:41:32.852Z,10.52
2017-09-20T00:41:36.666Z,10.55
2017-09-20T00:41:40.858Z,10.47
2017-09-20T00:41:44.915Z,10.54
2017-09-20T00:41:49.104Z,10.51
2017-09-20T00:41:53.170Z,10.51
2017-09-20T00:41:57.233Z,10.52
2017-09-20T00:42:01.043Z,10.55
2017-09-20T00:42:05.028Z,10.49
2017-09-20T00:42:09.209Z,10.57
2017-09-20T00:42:13.268Z,10.52
2017-09-20T00:42:17.202Z,10.55
2017-09-20T00:42:21.388Z,10.49
2017-09-20T00:42:25.442Z,10.52
2017-09-20T00:42:29.503Z,10.57
2017-09-20T00:42:33.313Z,10.52
2017-09-20T00:42:37.501Z,10.55
2017-09-20T00:42:41.562Z,10.49
2017-09-20T00:42:45.368Z,10.54
2017-09-20T00:42:49.303Z,10.47
2017-09-20T00:42:53.484Z,10.55
2017-09-20T00:42:57.421Z,10.47
2017-09-20T00:43:01.103Z,10.54
2017-09-20T00:43:04.912Z,10.49
2017-09-20T00:43:08.976Z,10.43
2017-09-20T00:43:12.906Z,10.51
2017-09-20T00:43:17.091Z,10.47
2017-09-20T00:43:21.150Z,10.46
2017-09-20T00:43:25.338Z,10.43
2017-09-20T00:43:29.150Z,10.55
2017-09-20T00:43:33.462Z,10.57
2017-09-20T00:43:37.518Z,10.55
2017-09-20T00:43:41.452Z,10.6
2017-09-20T00:43:45.523Z,10.54
2017-09-20T00:43:49.709Z,10.55
2017-09-20T00:43:53.889Z,10.47
2017-09-20T00:43:57.825Z,10.52
2017-09-20T00:44:01.884Z,10.47
2017-09-20T00:44:05.814Z,10.55
2017-09-20T00:44:09.751Z,10.46
2017-09-20T00:44:13.938Z,10.42
2017-09-20T00:44:18.001Z,10.46
2017-09-20T00:44:22.058Z,10.44
2017-09-20T00:44:26.119Z,10.57
2017-09-20T00:44:29.930Z,10.57
2017-09-20T00:44:33.866Z,10.54
2017-09-20T00:44:37.937Z,10.52
2017-09-20T00:44:41.875Z,10.51
2017-09-20T00:44:46.060Z,10.49
2017-09-20T00:44:50.376Z,10.55
2017-09-20T00:44:54.439Z,10.47
2017-09-20T00:44:58.622Z,10.51
2017-09-20T00:45:02.805Z,10.47
2017-09-20T00:45:06.865Z,10.52
2017-09-20T00:45:10.917Z,10.52
2017-09-20T00:45:15.108Z,10.51
2017-09-20T00:45:19.168Z,10.44
2017-09-20T00:45:23.607Z,10.51
2017-09-20T00:45:27.668Z,10.51
2017-09-20T00:45:31.481Z,10.46
2017-09-20T00:45:35.417Z,10.49
2017-09-20T00:45:39.608Z,10.49
2017-09-20T00:45:43.534Z,10.44
2017-09-20T00:45:47.717Z,10.49
2017-09-20T00:45:51.654Z,10.49
2017-09-20T00:45:55.595Z,10.47
2017-09-20T00:45:59.404Z,10.54
2017-09-20T00:46:03.215Z,10.43
2017-09-20T00:46:07.279Z,10.44
2017-09-20T00:46:11.214Z,10.46
2017-09-20T00:46:15.269Z,10.47
2017-09-20T00:46:19.204Z,10.49
2017-09-20T00:46:23.264Z,10.44
2017-09-20T00:46:27.352Z,10.55
2017-09-20T00:46:31.540Z,10.47
2017-09-20T00:46:35.472Z,10.51
2017-09-20T00:46:39.533Z,10.44
2017-09-20T00:46:43.341Z,10.42
2017-09-20T00:46:47.291Z,10.42
2017-09-20T00:46:51.477Z,10.42
2017-09-20T00:46:55.570Z,10.42
2017-09-20T00:46:59.503Z,10.47
2017-09-20T00:47:03.313Z,10.46
2017-09-20T00:47:07.375Z,10.54
2017-09-20T00:47:11.821Z,10.42
2017-09-20T00:47:16.138Z,10.44
2017-09-20T00:47:20.192Z,10.43
2017-09-20T00:47:24.375Z,10.42
2017-09-20T00:47:28.433Z,10.44
2017-09-20T00:47:32.369Z,10.49
2017-09-20T00:47:36.303Z,10.42
2017-09-20T00:47:40.615Z,10.46
2017-09-20T00:47:44.936Z,10.49
2017-09-20T00:47:49.118Z,10.51
2017-09-20T00:47:53.303Z,10.51
2017-09-20T00:47:57.492Z,10.39
2017-09-20T00:48:01.558Z,10.47
2017-09-20T00:48:05.448Z,10.44
2017-09-20T00:48:09.631Z,10.49
2017-09-20T00:48:13.704Z,10.55
2017-09-20T00:48:18.140Z,10.42
2017-09-20T00:48:22.321Z,10.46
2017-09-20T00:48:26.508Z,10.42
2017-09-20T00:48:30.570Z,10.44
2017-09-20T00:48:34.248Z,10.46
2017-09-20T00:48:38.058Z,10.47
2017-09-20T00:48:42.118Z,10.54
2017-09-20T00:48:46.305Z,10.49
2017-09-20T00:48:50.487Z,10.52
2017-09-20T00:48:54.298Z,10.49
2017-09-20T00:48:58.240Z,10.46
2017-09-20T00:49:02.348Z,10.46
2017-09-20T00:49:06.289Z,10.44
2017-09-20T00:49:10.477Z,10.47
2017-09-20T00:49:14.292Z,10.44
2017-09-20T00:49:18.352Z,10.46
2017-09-20T00:49:22.407Z,10.46
2017-09-20T00:49:26.586Z,10.46
2017-09-20T00:49:30.647Z,10.47
2017-09-20T00:49:34.707Z,10.43
2017-09-20T00:49:38.646Z,10.47
2017-09-20T00:49:42.704Z,10.47
2017-09-20T00:49:46.770Z,10.43
2017-09-20T00:49:51.085Z,10.38
2017-09-20T00:49:55.012Z,10.47
2017-09-20T00:49:58.815Z,10.49
2017-09-20T00:50:02.755Z,10.44
2017-09-20T00:50:06.560Z,10.49
2017-09-20T00:50:10.747Z,10.51
2017-09-20T00:50:14.680Z,10.44
2017-09-20T00:50:18.869Z,10.42
2017-09-20T00:50:22.839Z,10.44
2017-09-20T00:50:26.890Z,10.39
2017-09-20T00:50:30.576Z,10.46
2017-09-20T00:50:34.640Z,10.44
2017-09-20T00:50:38.704Z,10.43
2017-09-20T00:50:42.885Z,10.39
2017-09-20T00:50:46.942Z,10.46
2017-09-20T00:50:51.000Z,10.49
2017-09-20T00:50:55.060Z,10.47
2017-09-20T00:50:59.506Z,10.49
2017-09-20T00:51:03.522Z,10.44
2017-09-20T00:51:07.579Z,10.43
2017-09-20T00:51:11.517Z,10.44
2017-09-20T00:51:15.702Z,10.34
2017-09-20T00:51:19.754Z,10.36
2017-09-20T00:51:55.802Z,10.43
2017-09-20T00:51:59.740Z,10.43
2017-09-20T00:52:04.058Z,10.38
2017-09-20T00:52:08.120Z,10.39
2017-09-20T00:52:12.051Z,10.39
2017-09-20T00:52:16.249Z,10.43
2017-09-20T00:52:20.301Z,10.43
2017-09-20T00:52:24.607Z,10.42
2017-09-20T00:52:28.543Z,10.43
2017-09-20T00:52:32.604Z,10.42
2017-09-20T00:52:36.782Z,10.32
2017-09-20T00:52:40.959Z,10.31
2017-09-20T00:52:45.024Z,10.39